Time;durP1;ratioP1;P1;durP2;ratioP2;P2;SDS_P1;SDS_P2;PMS_P1;PMS_P2;Temp;Humidity;BMP_temperature;BMP_pressure;BME280_temperature;BME280_humidity;BME280_pressure;Samples;Min_cycle;Max_cycle;Signal;HPM_P1;HPM_P2
2023/07/22 00:01:32;;;;;;;5.60;4.05;;;;;20.70;101246.00;;;;5088804;28;20206;-83
2023/07/22 00:03:59;;;;;;;5.55;3.83;;;;;20.70;101242.00;;;;5089718;28;20230;-83
2023/07/22 00:06:27;;;;;;;6.25;4.40;;;;;20.70;101244.00;;;;5106658;28;20212;-83
2023/07/22 00:08:54;;;;;;;4.72;3.72;;;;;20.70;101240.00;;;;5110153;28;20199;-83
2023/07/22 00:11:21;;;;;;;5.22;3.63;;;;;20.60;101239.00;;;;5109214;28;20647;-83
2023/07/22 00:13:50;;;;;;;5.13;3.70;;;;;20.60;101237.00;;;;5109915;28;20201;-83
2023/07/22 00:16:17;;;;;;;4.45;3.58;;;;;20.60;101237.00;;;;5089006;28;20222;-83
2023/07/22 00:18:45;;;;;;;5.50;4.00;;;;;20.60;101231.00;;;;5088847;28;20754;-83
2023/07/22 00:21:12;;;;;;;4.05;3.13;;;;;20.60;101231.00;;;;5089542;28;20193;-83
2023/07/22 00:23:39;;;;;;;4.45;3.33;;;;;20.60;101225.00;;;;5088669;28;20260;-83
2023/07/22 00:26:06;;;;;;;6.75;3.80;;;;;20.60;101224.00;;;;5089316;28;20655;-83
2023/07/22 00:28:34;;;;;;;4.25;3.25;;;;;20.60;101228.00;;;;5088206;28;20202;-83
2023/07/22 00:31:04;;;;;;;5.40;3.40;;;;;20.50;101223.00;;;;5089566;28;20213;-83
2023/07/22 00:33:31;;;;;;;4.30;3.28;;;;;20.50;101223.00;;;;5089140;28;20198;-83
2023/07/22 00:35:58;;;;;;;4.88;3.53;;;;;20.50;101224.00;;;;5091129;28;20202;-83
2023/07/22 00:38:26;;;;;;;4.10;3.00;;;;;20.50;101227.00;;;;5108942;28;20208;-83
2023/07/22 00:40:54;;;;;;;5.00;3.53;;;;;20.50;101219.00;;;;5109284;28;20564;-83
2023/07/22 00:43:21;;;;;;;4.05;3.42;;;;;20.50;101223.00;;;;5108721;28;20229;-83
2023/07/22 00:45:48;;;;;;;4.65;3.33;;;;;20.50;101225.00;;;;5109375;28;20193;-82
2023/07/22 00:48:18;;;;;;;5.35;3.70;;;;;20.50;101214.00;;;;5105545;28;20700;-83
2023/07/22 00:50:45;;;;;;;6.22;4.25;;;;;20.50;101225.00;;;;5088306;28;20679;-83
2023/07/22 00:53:13;;;;;;;6.25;3.97;;;;;20.50;101222.00;;;;5088841;28;20202;-83
2023/07/22 00:55:41;;;;;;;5.63;3.83;;;;;20.50;101209.00;;;;5088540;28;20205;-83
2023/07/22 00:58:08;;;;;;;5.38;3.75;;;;;20.50;101211.00;;;;5088189;28;20212;-83
2023/07/22 01:00:35;;;;;;;5.30;3.78;;;;;20.50;101218.00;;;;5087856;28;20213;-83
2023/07/22 01:03:02;;;;;;;4.50;3.60;;;;;20.50;101207.00;;;;5088138;28;20249;-83
2023/07/22 01:05:33;;;;;;;4.43;3.60;;;;;20.50;101208.00;;;;5088647;28;20202;-83
2023/07/22 01:08:00;;;;;;;4.47;3.17;;;;;20.50;101206.00;;;;5107239;28;20216;-83
2023/07/22 01:10:28;;;;;;;5.10;3.80;;;;;20.50;101192.00;;;;5108201;28;20279;-83
2023/07/22 01:12:57;;;;;;;4.07;2.88;;;;;20.50;101201.00;;;;5108510;28;20208;-83
2023/07/22 01:15:25;;;;;;;4.85;3.42;;;;;20.50;101201.00;;;;5108337;28;20220;-83
2023/07/22 01:17:55;;;;;;;4.75;3.20;;;;;20.50;101201.00;;;;5108860;28;20648;-82
2023/07/22 01:20:23;;;;;;;5.72;3.70;;;;;20.50;101195.00;;;;5107426;28;21203;-83
2023/07/22 01:22:54;;;;;;;5.70;4.00;;;;;20.40;101198.00;;;;5107252;28;20232;-83
2023/07/22 01:25:22;;;;;;;7.22;3.70;;;;;20.50;101197.00;;;;5107943;28;20213;-82
2023/07/22 01:27:50;;;;;;;4.03;3.45;;;;;20.50;101191.00;;;;5108826;28;20238;-83
2023/07/22 01:30:17;;;;;;;5.88;4.07;;;;;20.40;101190.00;;;;5107974;28;20194;-83
2023/07/22 01:32:45;;;;;;;5.35;3.75;;;;;20.40;101187.00;;;;5108086;28;20663;-83
2023/07/22 01:35:13;;;;;;;5.07;3.40;;;;;20.40;101182.00;;;;5108152;28;20689;-83
2023/07/22 01:37:40;;;;;;;5.18;3.83;;;;;20.40;101182.00;;;;5108035;28;20235;-83
2023/07/22 01:40:12;;;;;;;4.35;3.25;;;;;20.40;101186.00;;;;5107532;28;20201;-83
2023/07/22 01:42:39;;;;;;;3.85;3.03;;;;;20.30;101185.00;;;;5108063;28;20614;-83
2023/07/22 01:45:08;;;;;;;5.82;3.90;;;;;20.30;101184.00;;;;5108710;28;20674;-83
2023/07/22 01:47:35;;;;;;;6.30;3.85;;;;;20.30;101184.00;;;;5111202;28;20289;-82
2023/07/22 01:50:03;;;;;;;6.18;4.00;;;;;20.30;101181.00;;;;5111873;28;20197;-83
2023/07/22 01:52:30;;;;;;;5.53;3.90;;;;;20.30;101187.00;;;;5112387;28;20276;-83
2023/07/22 01:54:57;;;;;;;5.10;3.63;;;;;20.30;101190.00;;;;5112363;28;20289;-83
2023/07/22 01:57:26;;;;;;;5.97;4.20;;;;;20.20;101185.00;;;;5110777;28;20208;-83
2023/07/22 01:59:53;;;;;;;5.63;4.10;;;;;20.20;101187.00;;;;5111226;28;20659;-83
2023/07/22 02:02:20;;;;;;;6.45;4.40;;;;;20.20;101184.00;;;;5111734;28;20198;-83
2023/07/22 02:04:48;;;;;;;6.57;4.40;;;;;20.20;101187.00;;;;5112209;28;20271;-83
2023/07/22 02:07:15;;;;;;;5.10;3.63;;;;;20.20;101184.00;;;;5112352;28;20201;-83
2023/07/22 02:09:42;;;;;;;6.85;4.70;;;;;20.20;101184.00;;;;5112050;28;20202;-83
2023/07/22 02:12:10;;;;;;;4.82;3.85;;;;;20.10;101187.00;;;;5111717;28;20206;-83
2023/07/22 02:14:40;;;;;;;4.90;3.67;;;;;20.10;101175.00;;;;5096998;28;20226;-83
2023/07/22 02:17:09;;;;;;;6.25;4.40;;;;;20.10;101171.00;;;;5091800;28;20202;-83
2023/07/22 02:19:36;;;;;;;5.63;4.00;;;;;20.10;101173.00;;;;5091290;28;20727;-83
2023/07/22 02:22:04;;;;;;;5.80;4.05;;;;;20.10;101162.00;;;;5091145;28;20226;-83
2023/07/22 02:24:32;;;;;;;5.53;3.95;;;;;20.10;101159.00;;;;5090886;28;20618;-83
2023/07/22 02:26:59;;;;;;;9.10;5.38;;;;;20.10;101161.00;;;;5104094;28;20203;-83
2023/07/22 02:29:27;;;;;;;7.40;4.43;;;;;20.00;101168.00;;;;5110841;28;20201;-83
2023/07/22 02:31:55;;;;;;;5.88;3.92;;;;;20.00;101161.00;;;;5111202;28;20589;-83
2023/07/22 02:34:22;;;;;;;5.72;4.68;;;;;20.00;101162.00;;;;5111201;28;20603;-83
2023/07/22 02:36:50;;;;;;;5.75;4.35;;;;;20.00;101165.00;;;;5111913;28;20209;-83
2023/07/22 02:39:17;;;;;;;6.40;4.30;;;;;20.00;101161.00;;;;5111395;28;20194;-83
2023/07/22 02:41:44;;;;;;;6.30;4.40;;;;;20.00;101158.00;;;;5111271;28;20197;-83
2023/07/22 02:44:12;;;;;;;6.75;4.55;;;;;19.90;101159.00;;;;5111582;28;20629;-83
2023/07/22 02:46:41;;;;;;;6.45;4.82;;;;;19.90;101156.00;;;;5111308;28;20606;-82
2023/07/22 02:49:09;;;;;;;6.60;4.18;;;;;19.90;101150.00;;;;5110300;28;20288;-83
2023/07/22 02:51:37;;;;;;;6.18;4.82;;;;;19.90;101146.00;;;;5110943;28;20278;-83
2023/07/22 02:54:04;;;;;;;7.70;5.07;;;;;19.90;101147.00;;;;5111288;28;20655;-83
2023/07/22 02:56:31;;;;;;;6.07;4.70;;;;;19.90;101154.00;;;;5110717;28;20509;-83
2023/07/22 02:58:59;;;;;;;6.13;4.60;;;;;19.90;101154.00;;;;5109771;28;20197;-83
2023/07/22 03:01:26;;;;;;;7.45;5.07;;;;;19.80;101156.00;;;;5110229;28;20202;-83
2023/07/22 03:03:54;;;;;;;6.05;4.78;;;;;19.80;101164.00;;;;5110658;28;20244;-83
2023/07/22 03:06:22;;;;;;;6.80;5.03;;;;;19.80;101163.00;;;;5109773;28;20566;-83
2023/07/22 03:08:51;;;;;;;7.20;5.40;;;;;19.80;101165.00;;;;5111145;28;20667;-83
2023/07/22 03:11:18;;;;;;;7.10;4.28;;;;;19.80;101170.00;;;;5110622;28;20282;-83
2023/07/22 03:13:47;;;;;;;6.80;5.22;;;;;19.80;101163.00;;;;5110191;28;20206;-83
2023/07/22 03:16:15;;;;;;;6.50;5.20;;;;;19.80;101158.00;;;;5110930;28;20197;-83
2023/07/22 03:18:44;;;;;;;7.40;5.07;;;;;19.70;101159.00;;;;5111079;28;20197;-83
2023/07/22 03:21:11;;;;;;;8.02;5.55;;;;;19.70;101157.00;;;;5108779;28;20241;-83
2023/07/22 03:23:40;;;;;;;7.05;5.13;;;;;19.70;101163.00;;;;5089674;28;20245;-83
2023/07/22 03:26:07;;;;;;;9.65;5.28;;;;;19.70;101161.00;;;;5090157;28;20206;-83
2023/07/22 03:28:35;;;;;;;10.55;5.00;;;;;19.70;101163.00;;;;5090134;28;20205;-82
2023/07/22 03:31:02;;;;;;;7.25;5.47;;;;;19.70;101160.00;;;;5089908;28;20198;-83
2023/07/22 03:33:31;;;;;;;7.50;5.40;;;;;19.70;101161.00;;;;5089519;28;20281;-83
2023/07/22 03:35:58;;;;;;;7.60;5.28;;;;;19.70;101161.00;;;;5090844;28;20198;-83
2023/07/22 03:38:25;;;;;;;8.57;5.47;;;;;19.70;101164.00;;;;5090327;28;20198;-83
2023/07/22 03:40:54;;;;;;;8.25;5.53;;;;;19.60;101162.00;;;;5094217;28;20225;-83
2023/07/22 03:43:21;;;;;;;8.48;5.75;;;;;19.60;101168.00;;;;5109583;28;20221;-83
2023/07/22 03:45:49;;;;;;;9.68;6.57;;;;;19.60;101165.00;;;;5109457;28;20202;-83
2023/07/22 03:48:16;;;;;;;8.55;6.03;;;;;19.60;101157.00;;;;5110190;28;20208;-83
2023/07/22 03:50:43;;;;;;;7.18;4.90;;;;;19.60;101157.00;;;;5110621;28;20200;-83
2023/07/22 03:53:10;;;;;;;9.07;5.97;;;;;19.60;101162.00;;;;5109331;28;20197;-83
2023/07/22 03:55:37;;;;;;;8.52;5.75;;;;;19.60;101156.00;;;;5103106;28;20687;-83
2023/07/22 03:58:06;;;;;;;8.52;5.85;;;;;19.60;101163.00;;;;5090126;28;20205;-83
2023/07/22 04:00:33;;;;;;;9.23;5.57;;;;;19.60;101171.00;;;;5089256;28;20206;-83
2023/07/22 04:03:01;;;;;;;8.65;6.07;;;;;19.60;101168.00;;;;5088569;28;20222;-82
2023/07/22 04:05:28;;;;;;;8.15;5.35;;;;;19.60;101174.00;;;;5088687;28;20664;-83
2023/07/22 04:07:55;;;;;;;8.20;5.60;;;;;19.50;101169.00;;;;5106709;28;20229;-83
2023/07/22 04:10:22;;;;;;;11.38;6.63;;;;;19.60;101170.00;;;;5109023;28;20197;-83
2023/07/22 04:12:49;;;;;;;8.02;5.43;;;;;19.60;101176.00;;;;5101406;28;20698;-83
2023/07/22 04:15:18;;;;;;;7.88;5.82;;;;;19.50;101163.00;;;;5088748;28;20195;-83
2023/07/22 04:17:46;;;;;;;8.15;5.72;;;;;19.60;101168.00;;;;5089462;28;20214;-83
2023/07/22 04:20:13;;;;;;;8.88;6.60;;;;;19.60;101160.00;;;;5089345;28;20202;-83
2023/07/22 04:22:42;;;;;;;8.88;6.35;;;;;19.60;101162.00;;;;5089065;28;20202;-83
2023/07/22 04:25:09;;;;;;;8.60;6.25;;;;;19.60;101161.00;;;;5089612;28;20233;-83
2023/07/22 04:27:37;;;;;;;11.20;6.60;;;;;19.60;101162.00;;;;5088439;28;20205;-83
2023/07/22 04:30:04;;;;;;;8.82;5.75;;;;;19.60;101163.00;;;;5089452;28;20201;-83
2023/07/22 04:32:33;;;;;;;8.93;5.65;;;;;19.60;101173.00;;;;5088949;28;20209;-83
2023/07/22 04:35:00;;;;;;;9.90;6.60;;;;;19.60;101164.00;;;;5089105;28;20202;-83
2023/07/22 04:37:27;;;;;;;11.38;6.05;;;;;19.60;101158.00;;;;5088027;28;20668;-83
2023/07/22 04:39:55;;;;;;;10.38;6.82;;;;;19.70;101168.00;;;;5089222;28;20532;-83
2023/07/22 04:42:22;;;;;;;9.07;6.00;;;;;19.70;101170.00;;;;5088495;28;20214;-83
2023/07/22 04:44:49;;;;;;;8.43;5.50;;;;;19.70;101166.00;;;;5089058;28;20221;-83
2023/07/22 04:47:17;;;;;;;8.85;6.15;;;;;19.70;101164.00;;;;5088987;28;20665;-83
2023/07/22 04:49:45;;;;;;;11.55;6.05;;;;;19.70;101170.00;;;;5089244;28;20206;-83
2023/07/22 04:52:12;;;;;;;10.32;6.50;;;;;19.80;101168.00;;;;5088068;28;20202;-83
2023/07/22 04:54:40;;;;;;;8.63;6.20;;;;;19.80;101164.00;;;;5088945;28;20206;-83
2023/07/22 04:57:08;;;;;;;7.60;5.70;;;;;19.80;101164.00;;;;5089153;28;20241;-83
2023/07/22 04:59:35;;;;;;;12.30;6.50;;;;;19.90;101168.00;;;;5088307;28;20217;-83
2023/07/22 05:02:02;;;;;;;10.73;6.43;;;;;19.90;101167.00;;;;5088688;28;20675;-83
2023/07/22 05:04:29;;;;;;;10.50;6.47;;;;;19.90;101167.00;;;;5088218;28;20242;-84
2023/07/22 05:06:58;;;;;;;9.18;6.03;;;;;20.00;101167.00;;;;5094650;28;20667;-83
2023/07/22 05:09:25;;;;;;;10.60;5.85;;;;;20.00;101171.00;;;;5108921;28;20212;-83
2023/07/22 05:11:52;;;;;;;9.90;6.15;;;;;20.10;101170.00;;;;5108645;28;20198;-83
2023/07/22 05:14:20;;;;;;;8.02;5.55;;;;;20.10;101176.00;;;;5108346;28;20586;-83
2023/07/22 05:16:47;;;;;;;9.93;6.70;;;;;20.10;101174.00;;;;5108632;28;20200;-83
2023/07/22 05:19:14;;;;;;;11.20;6.53;;;;;20.20;101170.00;;;;5108239;28;20200;-83
2023/07/22 05:21:42;;;;;;;9.73;6.72;;;;;20.20;101165.00;;;;5093018;28;20601;-83
2023/07/22 05:24:10;;;;;;;10.32;6.90;;;;;20.20;101167.00;;;;5087645;28;20318;-83
2023/07/22 05:26:37;;;;;;;11.45;7.05;;;;;20.30;101169.00;;;;5087165;28;20216;-83
2023/07/22 05:29:05;;;;;;;10.77;7.20;;;;;20.30;101177.00;;;;5087979;28;20194;-83
2023/07/22 05:31:32;;;;;;;11.13;6.97;;;;;20.40;101167.00;;;;5087845;28;20735;-83
2023/07/22 05:34:00;;;;;;;9.85;6.38;;;;;20.40;101170.00;;;;5088329;28;20217;-83
2023/07/22 05:36:27;;;;;;;10.60;6.65;;;;;20.50;101172.00;;;;5087118;28;20213;-84
2023/07/22 05:38:54;;;;;;;10.90;6.70;;;;;20.50;101165.00;;;;5097313;28;20202;-83
2023/07/22 05:41:23;;;;;;;13.10;7.57;;;;;20.60;101165.00;;;;5108235;28;20206;-84
2023/07/22 05:43:50;;;;;;;11.25;7.35;;;;;20.60;101175.00;;;;5107597;28;21010;-83
2023/07/22 05:46:17;;;;;;;11.60;7.78;;;;;20.70;101174.00;;;;5108162;28;20213;-83
2023/07/22 05:48:45;;;;;;;9.35;6.30;;;;;20.70;101171.00;;;;5107800;28;20667;-83
2023/07/22 05:51:12;;;;;;;10.82;6.68;;;;;20.80;101166.00;;;;5108419;28;20285;-83
2023/07/22 05:53:39;;;;;;;11.68;7.45;;;;;20.80;101177.00;;;;5108608;28;20205;-84
2023/07/22 05:56:07;;;;;;;12.98;7.97;;;;;20.90;101171.00;;;;5107008;28;20201;-83
2023/07/22 05:58:36;;;;;;;11.52;7.68;;;;;20.90;101174.00;;;;5107985;28;20198;-83
2023/07/22 06:01:03;;;;;;;13.43;7.78;;;;;21.00;101176.00;;;;5108046;28;20201;-83
2023/07/22 06:03:30;;;;;;;13.27;8.52;;;;;21.00;101174.00;;;;5107703;28;20241;-83
2023/07/22 06:05:58;;;;;;;12.60;7.40;;;;;21.00;101174.00;;;;5108257;28;20202;-83
2023/07/22 06:08:25;;;;;;;12.85;8.52;;;;;21.10;101167.00;;;;5107174;28;20204;-83
2023/07/22 06:10:53;;;;;;;13.88;7.45;;;;;21.10;101174.00;;;;5108010;28;20204;-83
2023/07/22 06:13:20;;;;;;;12.95;7.80;;;;;21.20;101173.00;;;;5107329;28;20206;-83
2023/07/22 06:15:48;;;;;;;25.42;8.57;;;;;21.20;101168.00;;;;5108273;28;20225;-83
2023/07/22 06:18:16;;;;;;;12.90;8.32;;;;;21.30;101165.00;;;;5107625;28;20498;-83
2023/07/22 06:20:43;;;;;;;12.95;8.15;;;;;21.40;101159.00;;;;5108509;28;20202;-83
2023/07/22 06:23:10;;;;;;;14.38;8.27;;;;;21.40;101161.00;;;;5108246;28;20717;-83
2023/07/22 06:25:37;;;;;;;17.15;9.45;;;;;21.50;101165.00;;;;5107352;28;20229;-83
2023/07/22 06:28:05;;;;;;;12.57;8.70;;;;;21.50;101167.00;;;;5106363;28;20200;-83
2023/07/22 06:30:33;;;;;;;24.58;10.02;;;;;21.60;101169.00;;;;5107775;28;20205;-82
2023/07/22 06:33:01;;;;;;;15.18;8.85;;;;;21.60;101170.00;;;;5109543;28;20259;-84
2023/07/22 06:35:29;;;;;;;14.07;9.52;;;;;21.70;101163.00;;;;5111969;28;20206;-83
2023/07/22 06:37:56;;;;;;;16.38;8.55;;;;;21.80;101164.00;;;;5111852;28;20210;-83
2023/07/22 06:40:24;;;;;;;14.95;8.93;;;;;21.90;101163.00;;;;5111658;28;20193;-83
2023/07/22 06:42:51;;;;;;;15.55;9.82;;;;;22.00;101169.00;;;;5110342;28;20201;-83
2023/07/22 06:45:19;;;;;;;14.45;9.00;;;;;22.00;101161.00;;;;5091467;28;20233;-82
2023/07/22 06:47:47;;;;;;;13.10;8.70;;;;;22.10;101154.00;;;;5091305;28;20209;-83
2023/07/22 06:50:15;;;;;;;14.75;7.97;;;;;22.20;101154.00;;;;5090342;28;20221;-83
2023/07/22 06:52:42;;;;;;;13.02;8.43;;;;;22.30;101154.00;;;;5090909;28;20549;-83
2023/07/22 06:55:10;;;;;;;12.52;8.85;;;;;22.30;101152.00;;;;5090902;28;20221;-83
2023/07/22 06:57:37;;;;;;;13.07;7.85;;;;;22.40;101150.00;;;;5090406;28;20202;-83
2023/07/22 07:00:06;;;;;;;12.68;8.30;;;;;22.50;101151.00;;;;5090917;28;20596;-82
2023/07/22 07:02:33;;;;;;;15.88;8.38;;;;;22.50;101160.00;;;;5090672;28;20678;-83
2023/07/22 07:05:00;;;;;;;14.57;9.15;;;;;22.60;101161.00;;;;5090234;28;20226;-82
2023/07/22 07:07:29;;;;;;;17.30;9.40;;;;;22.60;101159.00;;;;5099707;28;20197;-83
2023/07/22 07:09:56;;;;;;;15.07;8.82;;;;;22.60;101153.00;;;;5110791;28;20201;-83
2023/07/22 07:12:23;;;;;;;13.13;8.40;;;;;22.70;101160.00;;;;5110181;28;20194;-83
2023/07/22 07:14:52;;;;;;;12.50;9.40;;;;;22.70;101154.00;;;;5111188;28;20626;-83
2023/07/22 07:17:19;;;;;;;12.55;8.07;;;;;22.80;101156.00;;;;5110333;28;20218;-83
2023/07/22 07:19:46;;;;;;;13.63;8.25;;;;;22.80;101152.00;;;;5103598;28;20206;-83
2023/07/22 07:22:14;;;;;;;11.80;7.68;;;;;22.90;101149.00;;;;5090169;28;20753;-83
2023/07/22 07:24:43;;;;;;;12.85;8.82;;;;;22.90;101159.00;;;;5090975;28;20280;-83
2023/07/22 07:27:10;;;;;;;13.05;8.57;;;;;23.00;101159.00;;;;5089893;28;20206;-83
2023/07/22 07:29:37;;;;;;;13.02;7.82;;;;;23.00;101151.00;;;;5089185;28;20686;-83
2023/07/22 07:32:05;;;;;;;13.05;7.65;;;;;23.10;101145.00;;;;5091035;28;20210;-83
2023/07/22 07:34:32;;;;;;;10.38;6.80;;;;;23.10;101143.00;;;;5089919;28;20758;-83
2023/07/22 07:36:59;;;;;;;11.57;7.63;;;;;23.20;101152.00;;;;5091113;28;20206;-83
2023/07/22 07:39:26;;;;;;;12.68;7.25;;;;;23.30;101150.00;;;;5102867;28;20197;-82
2023/07/22 07:41:55;;;;;;;10.32;6.50;;;;;23.30;101150.00;;;;5110228;28;20190;-82
2023/07/22 07:44:22;;;;;;;13.43;6.93;;;;;23.40;101149.00;;;;5109716;28;20217;-83
2023/07/22 07:46:49;;;;;;;10.80;7.47;;;;;23.50;101152.00;;;;5110816;28;20565;-84
2023/07/22 07:49:17;;;;;;;11.63;6.85;;;;;23.50;101145.00;;;;5110119;28;20193;-82
2023/07/22 07:51:44;;;;;;;8.50;6.20;;;;;23.60;101151.00;;;;5109809;28;20213;-82
2023/07/22 07:54:11;;;;;;;9.18;5.95;;;;;23.70;101150.00;;;;5109214;28;20194;-83
2023/07/22 07:56:38;;;;;;;10.75;6.68;;;;;23.70;101146.00;;;;5110047;28;20201;-81
2023/07/22 07:59:09;;;;;;;11.80;6.82;;;;;23.80;101148.00;;;;5109773;28;20201;-83
2023/07/22 08:01:37;;;;;;;9.32;6.65;;;;;23.80;101152.00;;;;5109426;28;20212;-84
2023/07/22 08:04:05;;;;;;;11.52;6.20;;;;;23.90;101151.00;;;;5109008;28;20234;-83
2023/07/22 08:06:32;;;;;;;10.20;7.28;;;;;24.00;101155.00;;;;5108937;28;20204;-82
2023/07/22 08:09:00;;;;;;;14.43;6.70;;;;;24.00;101153.00;;;;5109759;28;20198;-82
2023/07/22 08:11:27;;;;;;;9.25;6.18;;;;;24.00;101149.00;;;;5095615;28;20213;-83
2023/07/22 08:13:55;;;;;;;10.50;5.85;;;;;24.10;101150.00;;;;5088916;28;20485;-83
2023/07/22 08:16:24;;;;;;;7.60;5.07;;;;;24.10;101150.00;;;;5089030;28;20211;-84
2023/07/22 08:18:51;;;;;;;8.43;5.82;;;;;24.20;101151.00;;;;5088898;28;20578;-81
2023/07/22 08:21:19;;;;;;;9.63;6.25;;;;;24.30;101149.00;;;;5089111;28;20210;-80
2023/07/22 08:23:47;;;;;;;9.40;5.90;;;;;24.30;101156.00;;;;5088889;28;20198;-82
2023/07/22 08:26:17;;;;;;;9.63;6.50;;;;;24.40;101156.00;;;;5088939;28;20230;-82
2023/07/22 08:28:45;;;;;;;10.80;5.57;;;;;24.50;101156.00;;;;5089957;28;20308;-83
2023/07/22 08:31:12;;;;;;;8.98;5.85;;;;;24.50;101151.00;;;;5088980;28;20206;-83
2023/07/22 08:33:40;;;;;;;7.50;5.82;;;;;24.60;101158.00;;;;5087807;28;20209;-83
2023/07/22 08:36:08;;;;;;;8.00;6.03;;;;;24.60;101141.00;;;;5089111;28;20198;-83
2023/07/22 08:38:35;;;;;;;7.63;4.97;;;;;24.70;101153.00;;;;5094409;28;20209;-81
2023/07/22 08:41:03;;;;;;;8.23;5.85;;;;;24.70;101151.00;;;;5109210;28;20678;-81
2023/07/22 08:43:31;;;;;;;10.38;5.28;;;;;24.80;101155.00;;;;5108960;28;20201;-83
2023/07/22 08:46:01;;;;;;;7.60;4.78;;;;;24.80;101151.00;;;;5108129;28;20232;-81
2023/07/22 08:48:33;;;;;;;9.30;5.43;;;;;24.90;101140.00;;;;5109042;28;20205;-82
2023/07/22 08:51:05;;;;;;;7.10;5.25;;;;;24.90;101139.00;;;;5109569;28;20208;-82
2023/07/22 08:53:33;;;;;;;7.88;4.78;;;;;25.00;101143.00;;;;5108483;28;20262;-82
2023/07/22 08:56:01;;;;;;;8.98;4.60;;;;;25.10;101148.00;;;;5107870;28;20193;-81
2023/07/22 08:58:29;;;;;;;6.32;4.18;;;;;25.10;101150.00;;;;5108443;28;20644;-82
2023/07/22 09:00:57;;;;;;;5.25;3.78;;;;;25.20;101148.00;;;;5107641;28;20194;-81
2023/07/22 09:03:25;;;;;;;6.57;3.88;;;;;25.30;101148.00;;;;5087377;28;20221;-81
2023/07/22 09:05:54;;;;;;;4.40;3.40;;;;;25.40;101152.00;;;;5087835;28;20606;-83
2023/07/22 09:08:22;;;;;;;5.05;3.60;;;;;25.40;101150.00;;;;5103285;28;20204;-84
2023/07/22 09:10:50;;;;;;;7.05;3.10;;;;;25.50;101145.00;;;;5108722;28;20214;-82
2023/07/22 09:13:20;;;;;;;7.00;3.55;;;;;25.50;101147.00;;;;5108519;28;20232;-81
2023/07/22 09:15:48;;;;;;;7.45;4.65;;;;;25.60;101147.00;;;;5108804;28;20280;-84
2023/07/22 09:18:16;;;;;;;7.53;4.15;;;;;25.50;101139.00;;;;5105294;28;20213;-83
2023/07/22 09:20:43;;;;;;;6.10;3.47;;;;;25.60;101140.00;;;;5087459;28;20202;-84
2023/07/22 09:23:10;;;;;;;4.03;3.28;;;;;25.60;101145.00;;;;5087839;28;20738;-83
2023/07/22 09:25:40;;;;;;;7.03;3.92;;;;;25.60;101148.00;;;;5088227;28;20302;-83
2023/07/22 09:28:07;;;;;;;5.28;3.88;;;;;25.60;101153.00;;;;5088397;28;20194;-84
2023/07/22 09:30:36;;;;;;;6.97;4.15;;;;;25.60;101158.00;;;;5087587;28;20213;-84
2023/07/22 09:33:05;;;;;;;6.05;4.45;;;;;25.60;101141.00;;;;5087404;28;20202;-84
2023/07/22 09:35:47;;;;;;;4.35;3.58;;;;;25.70;101140.00;;;;5088163;28;20233;-84
2023/07/22 09:38:15;;;;;;;8.05;4.38;;;;;25.70;101144.00;;;;5090868;28;20193;-84
2023/07/22 09:40:44;;;;;;;6.95;4.53;;;;;25.60;101144.00;;;;5108400;28;20217;-83
2023/07/22 09:43:12;;;;;;;5.18;3.75;;;;;25.60;101143.00;;;;5108398;28;20205;-83
2023/07/22 09:45:40;;;;;;;6.28;3.70;;;;;25.60;101137.00;;;;5107063;28;20278;-83
2023/07/22 09:48:10;;;;;;;6.15;4.07;;;;;25.70;101136.00;;;;5107570;28;20202;-83
2023/07/22 09:50:38;;;;;;;5.78;3.55;;;;;25.70;101135.00;;;;5107950;28;20202;-84
2023/07/22 09:53:05;;;;;;;5.65;3.85;;;;;25.70;101138.00;;;;5098281;28;20272;-83
2023/07/22 09:55:34;;;;;;;5.03;4.20;;;;;25.70;101144.00;;;;5087783;28;20217;-83
2023/07/22 09:58:05;;;;;;;5.90;3.97;;;;;25.70;101143.00;;;;5087078;28;20687;-84
2023/07/22 10:00:33;;;;;;;4.65;4.05;;;;;25.70;101145.00;;;;5086724;28;20201;-85
2023/07/22 10:03:04;;;;;;;5.60;4.30;;;;;25.70;101138.00;;;;5087643;28;20206;-85
2023/07/22 10:05:33;;;;;;;6.13;4.32;;;;;25.70;101143.00;;;;5086948;28;20703;-83
2023/07/22 10:08:02;;;;;;;5.88;4.30;;;;;25.70;101135.00;;;;5101057;28;20197;-83
2023/07/22 10:10:33;;;;;;;4.82;4.03;;;;;25.70;101135.00;;;;5097997;28;20194;-84
2023/07/22 10:13:03;;;;;;;7.32;4.55;;;;;25.80;101137.00;;;;5091700;28;20194;-84
2023/07/22 10:15:33;;;;;;;6.15;4.45;;;;;25.80;101124.00;;;;5091102;28;20213;-84
2023/07/22 10:18:00;;;;;;;5.30;3.67;;;;;25.90;101122.00;;;;5091795;28;20206;-84
2023/07/22 10:20:29;;;;;;;5.38;3.83;;;;;25.90;101129.00;;;;5090652;28;20202;-83
2023/07/22 10:22:57;;;;;;;5.35;3.53;;;;;26.00;101127.00;;;;5091798;28;20552;-84
2023/07/22 10:25:25;;;;;;;7.22;3.78;;;;;26.00;101127.00;;;;5090693;28;20226;-84
2023/07/22 10:27:54;;;;;;;6.30;3.60;;;;;26.00;101133.00;;;;5091586;28;20213;-85
2023/07/22 10:30:23;;;;;;;5.18;3.97;;;;;26.00;101134.00;;;;5091139;28;20186;-81
2023/07/22 10:32:53;;;;;;;5.18;3.90;;;;;26.00;101128.00;;;;5091268;28;20197;-84
2023/07/22 10:35:35;;;;;;;3.60;2.35;;;;;26.00;101132.00;;;;5091077;28;20229;-85
2023/07/22 10:38:10;;;;;;;7.50;3.20;;;;;25.90;101125.00;;;;5092307;28;20237;-83
2023/07/22 10:40:47;;;;;;;3.72;2.55;;;;;25.90;101120.00;;;;5111182;28;20205;-83
2023/07/22 10:43:18;;;;;;;5.68;2.80;;;;;26.00;101129.00;;;;5110893;28;20206;-83
2023/07/22 10:45:52;;;;;;;3.67;2.75;;;;;25.90;101133.00;;;;5112202;28;20221;-84
2023/07/22 10:48:20;;;;;;;5.60;3.20;;;;;25.90;101133.00;;;;5111543;28;20205;-83
2023/07/22 10:50:49;;;;;;;5.13;3.25;;;;;25.90;101148.00;;;;5111401;28;20205;-84
2023/07/22 10:53:28;;;;;;;4.10;2.88;;;;;25.70;101145.00;;;;5111045;28;20695;-83
2023/07/22 10:56:14;;;;;;;5.13;3.00;;;;;25.60;101139.00;;;;5112026;28;20693;-82
2023/07/22 10:59:02;;;;;;;3.90;2.60;;;;;25.50;101139.00;;;;5112682;28;20190;-82
2023/07/22 11:01:36;;;;;;;2.88;2.15;;;;;25.50;101149.00;;;;5110223;28;20220;-83
2023/07/22 11:04:35;;;;;;;3.22;2.05;;;;;25.30;101144.00;;;;5110512;28;20245;-85
2023/07/22 11:07:05;;;;;;;3.67;2.47;;;;;25.40;101144.00;;;;5054826;28;20260;-83
2023/07/22 11:09:41;;;;;;;2.85;2.22;;;;;25.40;101139.00;;;;5110959;28;20571;-84
2023/07/22 11:12:13;;;;;;;6.45;2.58;;;;;25.40;101132.00;;;;5110427;28;20242;-85
2023/07/22 11:14:45;;;;;;;4.07;2.50;;;;;25.40;101131.00;;;;5110641;28;20205;-82
2023/07/22 11:17:14;;;;;;;2.63;1.92;;;;;25.40;101130.00;;;;5107700;28;20309;-83
2023/07/22 11:19:42;;;;;;;2.65;1.85;;;;;25.40;101124.00;;;;5089350;28;20197;-83
2023/07/22 11:22:10;;;;;;;4.50;2.85;;;;;25.40;101128.00;;;;5090115;28;20202;-84
2023/07/22 11:24:37;;;;;;;4.22;2.78;;;;;25.40;101121.00;;;;5089989;28;20698;-86
2023/07/22 11:27:06;;;;;;;4.20;3.00;;;;;25.40;101122.00;;;;5090379;28;20222;-84
2023/07/22 11:29:34;;;;;;;3.22;2.60;;;;;25.40;101111.00;;;;5089979;28;20210;-85
2023/07/22 11:32:01;;;;;;;3.85;2.38;;;;;25.50;101110.00;;;;5090096;28;20201;-83
2023/07/22 11:34:30;;;;;;;2.85;2.38;;;;;25.60;101109.00;;;;5090593;28;20225;-83
2023/07/22 11:36:58;;;;;;;4.55;2.55;;;;;25.70;101112.00;;;;5089799;28;20209;-83
2023/07/22 11:39:27;;;;;;;4.45;3.00;;;;;25.70;101104.00;;;;5103109;28;20206;-83
2023/07/22 11:41:54;;;;;;;5.30;2.45;;;;;25.80;101112.00;;;;5110499;28;20201;-83
2023/07/22 11:44:23;;;;;;;4.45;2.65;;;;;25.80;101108.00;;;;5110068;28;20189;-83
2023/07/22 11:46:54;;;;;;;3.05;2.70;;;;;25.80;101104.00;;;;5109887;28;20267;-85
2023/07/22 11:49:31;;;;;;;5.05;2.65;;;;;25.70;101102.00;;;;5109829;28;20266;-83
2023/07/22 11:52:00;;;;;;;4.65;3.15;;;;;25.80;101111.00;;;;5109334;28;20212;-84
2023/07/22 11:54:28;;;;;;;5.82;2.92;;;;;25.70;101106.00;;;;5109368;28;20223;-82
2023/07/22 11:56:55;;;;;;;4.00;2.42;;;;;25.70;101111.00;;;;5110187;28;20607;-82
2023/07/22 11:59:44;;;;;;;3.95;2.42;;;;;25.40;101113.00;;;;5110131;28;20208;-83
2023/07/22 12:02:14;;;;;;;2.20;1.85;;;;;25.50;101121.00;;;;5103291;28;20201;-84
2023/07/22 12:04:43;;;;;;;4.50;2.25;;;;;25.40;101123.00;;;;5110083;28;20225;-82
2023/07/22 12:07:24;;;;;;;3.08;2.00;;;;;25.20;101124.00;;;;5109283;28;20233;-83
2023/07/22 12:09:53;;;;;;;3.72;2.10;;;;;25.30;101131.00;;;;5093312;28;20217;-85
2023/07/22 12:12:20;;;;;;;3.13;2.08;;;;;25.20;101130.00;;;;5089404;28;20194;-84